sensor_id;sensor_type;location;lat;lon;timestamp;P1;durP1;ratioP1;P2;durP2;ratioP2
4174;SDS011;2101;48.290;14.382;2022-09-29T00:01:27;16.43;;;3.17;;
4174;SDS011;2101;48.290;14.382;2022-09-29T00:03:53;14.53;;;1.87;;
4174;SDS011;2101;48.290;14.382;2022-09-29T00:06:19;15.90;;;2.73;;
4174;SDS011;2101;48.290;14.382;2022-09-29T00:08:46;15.83;;;2.67;;
4174;SDS011;2101;48.290;14.382;2022-09-29T00:11:13;21.30;;;2.33;;
4174;SDS011;2101;48.290;14.382;2022-09-29T00:13:40;14.20;;;2.07;;
4174;SDS011;2101;48.290;14.382;2022-09-29T00:16:06;17.07;;;2.93;;
4174;SDS011;2101;48.290;14.382;2022-09-29T00:18:33;17.50;;;2.60;;
4174;SDS011;2101;48.290;14.382;2022-09-29T00:20:59;15.30;;;2.30;;
4174;SDS011;2101;48.290;14.382;2022-09-29T00:23:26;15.70;;;2.67;;
4174;SDS011;2101;48.290;14.382;2022-09-29T00:25:59;15.77;;;2.80;;
4174;SDS011;2101;48.290;14.382;2022-09-29T00:28:26;14.90;;;2.23;;
4174;SDS011;2101;48.290;14.382;2022-09-29T00:30:52;15.43;;;2.53;;
4174;SDS011;2101;48.290;14.382;2022-09-29T00:33:18;18.60;;;3.17;;
4174;SDS011;2101;48.290;14.382;2022-09-29T00:35:44;15.03;;;2.60;;
4174;SDS011;2101;48.290;14.382;2022-09-29T00:38:10;20.40;;;2.93;;
4174;SDS011;2101;48.290;14.382;2022-09-29T00:40:36;17.57;;;2.53;;
4174;SDS011;2101;48.290;14.382;2022-09-29T00:43:02;15.77;;;2.87;;
4174;SDS011;2101;48.290;14.382;2022-09-29T00:45:28;15.37;;;2.47;;
4174;SDS011;2101;48.290;14.382;2022-09-29T00:47:58;14.90;;;2.40;;
4174;SDS011;2101;48.290;14.382;2022-09-29T00:50:40;16.23;;;2.90;;
4174;SDS011;2101;48.290;14.382;2022-09-29T00:53:09;15.67;;;2.93;;
4174;SDS011;2101;48.290;14.382;2022-09-29T00:55:38;16.57;;;2.63;;
4174;SDS011;2101;48.290;14.382;2022-09-29T00:58:25;17.27;;;2.80;;
4174;SDS011;2101;48.290;14.382;2022-09-29T01:00:53;15.20;;;2.60;;
4174;SDS011;2101;48.290;14.382;2022-09-29T01:03:20;16.60;;;2.60;;
4174;SDS011;2101;48.290;14.382;2022-09-29T01:06:05;15.30;;;2.53;;
4174;SDS011;2101;48.290;14.382;2022-09-29T01:11:04;15.83;;;2.77;;
4174;SDS011;2101;48.290;14.382;2022-09-29T01:13:30;24.27;;;3.30;;
4174;SDS011;2101;48.290;14.382;2022-09-29T01:15:58;17.00;;;2.90;;
4174;SDS011;2101;48.290;14.382;2022-09-29T01:18:24;17.20;;;3.07;;
4174;SDS011;2101;48.290;14.382;2022-09-29T01:21:16;14.67;;;2.30;;
4174;SDS011;2101;48.290;14.382;2022-09-29T01:23:45;16.60;;;2.63;;
4174;SDS011;2101;48.290;14.382;2022-09-29T01:37:13;16.23;;;2.53;;
4174;SDS011;2101;48.290;14.382;2022-09-29T01:39:47;14.13;;;1.87;;
4174;SDS011;2101;48.290;14.382;2022-09-29T01:42:17;24.00;;;2.00;;
4174;SDS011;2101;48.290;14.382;2022-09-29T01:47:26;14.47;;;2.10;;
4174;SDS011;2101;48.290;14.382;2022-09-29T01:50:00;16.87;;;2.30;;
4174;SDS011;2101;48.290;14.382;2022-09-29T01:52:28;18.17;;;2.30;;
4174;SDS011;2101;48.290;14.382;2022-09-29T01:55:00;15.33;;;2.37;;
4174;SDS011;2101;48.290;14.382;2022-09-29T02:00:09;14.20;;;1.90;;
4174;SDS011;2101;48.290;14.382;2022-09-29T02:02:39;14.40;;;2.30;;
4174;SDS011;2101;48.290;14.382;2022-09-29T02:05:09;13.97;;;2.00;;
4174;SDS011;2101;48.290;14.382;2022-09-29T02:07:37;15.00;;;1.70;;
4174;SDS011;2101;48.290;14.382;2022-09-29T02:13:04;17.57;;;2.30;;
4174;SDS011;2101;48.290;14.382;2022-09-29T02:15:33;15.90;;;2.10;;
4174;SDS011;2101;48.290;14.382;2022-09-29T02:18:09;15.83;;;2.53;;
4174;SDS011;2101;48.290;14.382;2022-09-29T02:20:36;15.00;;;1.83;;
4174;SDS011;2101;48.290;14.382;2022-09-29T02:23:02;14.20;;;1.90;;
4174;SDS011;2101;48.290;14.382;2022-09-29T02:25:29;15.37;;;1.93;;
4174;SDS011;2101;48.290;14.382;2022-09-29T02:27:55;15.27;;;1.97;;
4174;SDS011;2101;48.290;14.382;2022-09-29T02:30:21;16.13;;;1.90;;
4174;SDS011;2101;48.290;14.382;2022-09-29T02:32:48;15.30;;;2.20;;
4174;SDS011;2101;48.290;14.382;2022-09-29T02:35:14;14.20;;;1.77;;
4174;SDS011;2101;48.290;14.382;2022-09-29T02:37:45;12.93;;;1.20;;
4174;SDS011;2101;48.290;14.382;2022-09-29T02:43:02;13.10;;;1.50;;
4174;SDS011;2101;48.290;14.382;2022-09-29T02:45:41;16.10;;;1.87;;
4174;SDS011;2101;48.290;14.382;2022-09-29T02:48:14;15.13;;;1.80;;
4174;SDS011;2101;48.290;14.382;2022-09-29T02:53:20;14.13;;;1.80;;
4174;SDS011;2101;48.290;14.382;2022-09-29T02:58:52;18.87;;;2.50;;
4174;SDS011;2101;48.290;14.382;2022-09-29T03:01:19;14.10;;;1.77;;
4174;SDS011;2101;48.290;14.382;2022-09-29T03:03:45;14.53;;;2.27;;
4174;SDS011;2101;48.290;14.382;2022-09-29T03:06:11;15.60;;;2.10;;
4174;SDS011;2101;48.290;14.382;2022-09-29T03:08:38;16.67;;;2.90;;
4174;SDS011;2101;48.290;14.382;2022-09-29T03:11:05;14.60;;;2.30;;
4174;SDS011;2101;48.290;14.382;2022-09-29T03:13:31;15.80;;;2.83;;
4174;SDS011;2101;48.290;14.382;2022-09-29T03:15:57;16.70;;;2.10;;
4174;SDS011;2101;48.290;14.382;2022-09-29T03:18:23;15.43;;;2.50;;
4174;SDS011;2101;48.290;14.382;2022-09-29T03:20:49;14.67;;;2.40;;
4174;SDS011;2101;48.290;14.382;2022-09-29T03:23:18;21.60;;;2.60;;
4174;SDS011;2101;48.290;14.382;2022-09-29T03:25:44;15.20;;;2.73;;
4174;SDS011;2101;48.290;14.382;2022-09-29T03:28:10;24.83;;;3.20;;
4174;SDS011;2101;48.290;14.382;2022-09-29T03:30:36;18.13;;;3.33;;
4174;SDS011;2101;48.290;14.382;2022-09-29T03:33:02;14.63;;;2.43;;
4174;SDS011;2101;48.290;14.382;2022-09-29T03:35:29;17.30;;;2.47;;
4174;SDS011;2101;48.290;14.382;2022-09-29T03:37:58;15.70;;;2.73;;
4174;SDS011;2101;48.290;14.382;2022-09-29T03:40:25;15.43;;;2.73;;
4174;SDS011;2101;48.290;14.382;2022-09-29T03:42:52;33.47;;;2.60;;
4174;SDS011;2101;48.290;14.382;2022-09-29T03:45:18;14.93;;;2.60;;
4174;SDS011;2101;48.290;14.382;2022-09-29T03:47:44;17.57;;;3.00;;
4174;SDS011;2101;48.290;14.382;2022-09-29T03:50:11;15.80;;;2.70;;
4174;SDS011;2101;48.290;14.382;2022-09-29T03:52:37;16.17;;;3.23;;
4174;SDS011;2101;48.290;14.382;2022-09-29T03:55:04;15.57;;;2.77;;
4174;SDS011;2101;48.290;14.382;2022-09-29T03:57:30;17.33;;;3.00;;
4174;SDS011;2101;48.290;14.382;2022-09-29T03:59:56;15.73;;;2.93;;
4174;SDS011;2101;48.290;14.382;2022-09-29T04:02:22;17.17;;;3.30;;
4174;SDS011;2101;48.290;14.382;2022-09-29T04:04:49;16.70;;;2.60;;
4174;SDS011;2101;48.290;14.382;2022-09-29T04:07:15;17.23;;;2.90;;
4174;SDS011;2101;48.290;14.382;2022-09-29T04:09:41;15.13;;;2.30;;
4174;SDS011;2101;48.290;14.382;2022-09-29T04:12:07;16.50;;;2.60;;
4174;SDS011;2101;48.290;14.382;2022-09-29T04:14:33;22.30;;;3.03;;
4174;SDS011;2101;48.290;14.382;2022-09-29T04:17:00;18.10;;;3.33;;
4174;SDS011;2101;48.290;14.382;2022-09-29T04:19:26;18.37;;;3.80;;
4174;SDS011;2101;48.290;14.382;2022-09-29T04:21:52;15.57;;;2.83;;
4174;SDS011;2101;48.290;14.382;2022-09-29T04:24:18;16.70;;;3.37;;
4174;SDS011;2101;48.290;14.382;2022-09-29T04:26:44;15.00;;;2.73;;
4174;SDS011;2101;48.290;14.382;2022-09-29T04:29:11;19.40;;;3.30;;
4174;SDS011;2101;48.290;14.382;2022-09-29T04:31:37;18.20;;;3.60;;
4174;SDS011;2101;48.290;14.382;2022-09-29T04:34:03;18.83;;;3.63;;
4174;SDS011;2101;48.290;14.382;2022-09-29T04:36:32;16.93;;;3.23;;
4174;SDS011;2101;48.290;14.382;2022-09-29T04:38:58;17.93;;;3.60;;
4174;SDS011;2101;48.290;14.382;2022-09-29T04:41:24;17.40;;;4.17;;
4174;SDS011;2101;48.290;14.382;2022-09-29T04:43:51;17.17;;;3.53;;
4174;SDS011;2101;48.290;14.382;2022-09-29T04:46:17;19.47;;;3.90;;
4174;SDS011;2101;48.290;14.382;2022-09-29T04:48:43;17.37;;;3.50;;
4174;SDS011;2101;48.290;14.382;2022-09-29T04:51:09;19.77;;;4.63;;
4174;SDS011;2101;48.290;14.382;2022-09-29T04:53:36;22.70;;;4.63;;
4174;SDS011;2101;48.290;14.382;2022-09-29T04:56:06;20.20;;;5.30;;
4174;SDS011;2101;48.290;14.382;2022-09-29T04:58:32;17.63;;;4.07;;
4174;SDS011;2101;48.290;14.382;2022-09-29T05:01:05;20.63;;;4.23;;
4174;SDS011;2101;48.290;14.382;2022-09-29T05:03:31;17.77;;;4.10;;
4174;SDS011;2101;48.290;14.382;2022-09-29T05:05:57;19.20;;;5.10;;
4174;SDS011;2101;48.290;14.382;2022-09-29T05:08:24;18.27;;;4.50;;
4174;SDS011;2101;48.290;14.382;2022-09-29T05:10:50;20.53;;;4.90;;
4174;SDS011;2101;48.290;14.382;2022-09-29T05:13:16;20.57;;;5.00;;
4174;SDS011;2101;48.290;14.382;2022-09-29T05:15:42;23.33;;;5.10;;
4174;SDS011;2101;48.290;14.382;2022-09-29T05:18:08;28.43;;;4.37;;
4174;SDS011;2101;48.290;14.382;2022-09-29T05:20:34;205.57;;;9.33;;
4174;SDS011;2101;48.290;14.382;2022-09-29T05:23:01;156.70;;;8.10;;
4174;SDS011;2101;48.290;14.382;2022-09-29T05:25:32;318.97;;;13.90;;
4174;SDS011;2101;48.290;14.382;2022-09-29T05:27:59;47.63;;;4.93;;
4174;SDS011;2101;48.290;14.382;2022-09-29T05:30:26;108.63;;;7.17;;
4174;SDS011;2101;48.290;14.382;2022-09-29T05:32:52;21.70;;;4.60;;
4174;SDS011;2101;48.290;14.382;2022-09-29T05:35:18;18.20;;;4.00;;
4174;SDS011;2101;48.290;14.382;2022-09-29T05:37:44;28.23;;;4.53;;
4174;SDS011;2101;48.290;14.382;2022-09-29T05:40:11;24.53;;;5.37;;
4174;SDS011;2101;48.290;14.382;2022-09-29T05:42:37;23.57;;;5.70;;
4174;SDS011;2101;48.290;14.382;2022-09-29T05:45:05;25.10;;;6.50;;
4174;SDS011;2101;48.290;14.382;2022-09-29T05:47:33;20.80;;;5.30;;
4174;SDS011;2101;48.290;14.382;2022-09-29T05:49:59;27.13;;;6.50;;
4174;SDS011;2101;48.290;14.382;2022-09-29T05:52:27;26.50;;;6.57;;
4174;SDS011;2101;48.290;14.382;2022-09-29T05:54:53;24.87;;;6.93;;
4174;SDS011;2101;48.290;14.382;2022-09-29T05:57:19;23.37;;;6.20;;
4174;SDS011;2101;48.290;14.382;2022-09-29T05:59:45;26.43;;;6.20;;
4174;SDS011;2101;48.290;14.382;2022-09-29T06:02:11;26.23;;;5.50;;
4174;SDS011;2101;48.290;14.382;2022-09-29T06:04:37;25.80;;;6.40;;
4174;SDS011;2101;48.290;14.382;2022-09-29T06:07:03;241.00;;;12.87;;
4174;SDS011;2101;48.290;14.382;2022-09-29T06:09:31;231.27;;;9.77;;
4174;SDS011;2101;48.290;14.382;2022-09-29T06:11:57;219.90;;;8.77;;
4174;SDS011;2101;48.290;14.382;2022-09-29T06:14:24;119.83;;;9.23;;
4174;SDS011;2101;48.290;14.382;2022-09-29T06:16:50;123.67;;;8.70;;
4174;SDS011;2101;48.290;14.382;2022-09-29T06:19:16;236.73;;;14.40;;
4174;SDS011;2101;48.290;14.382;2022-09-29T06:21:42;192.70;;;14.00;;
4174;SDS011;2101;48.290;14.382;2022-09-29T06:24:08;116.40;;;7.53;;
4174;SDS011;2101;48.290;14.382;2022-09-29T06:26:34;115.57;;;9.10;;
4174;SDS011;2101;48.290;14.382;2022-09-29T06:29:00;353.73;;;16.20;;
4174;SDS011;2101;48.290;14.382;2022-09-29T06:31:27;24.63;;;6.23;;
4174;SDS011;2101;48.290;14.382;2022-09-29T06:34:00;24.83;;;6.10;;
4174;SDS011;2101;48.290;14.382;2022-09-29T06:36:42;29.33;;;6.23;;
4174;SDS011;2101;48.290;14.382;2022-09-29T06:39:27;22.90;;;5.93;;
4174;SDS011;2101;48.290;14.382;2022-09-29T06:41:54;28.60;;;6.23;;
4174;SDS011;2101;48.290;14.382;2022-09-29T06:44:24;23.27;;;5.73;;
4174;SDS011;2101;48.290;14.382;2022-09-29T06:46:51;22.73;;;6.30;;
4174;SDS011;2101;48.290;14.382;2022-09-29T06:49:18;25.20;;;6.77;;
4174;SDS011;2101;48.290;14.382;2022-09-29T06:51:44;25.20;;;6.80;;
4174;SDS011;2101;48.290;14.382;2022-09-29T06:54:11;29.20;;;5.80;;
4174;SDS011;2101;48.290;14.382;2022-09-29T06:56:37;26.63;;;5.80;;
4174;SDS011;2101;48.290;14.382;2022-09-29T06:59:03;22.63;;;6.30;;
4174;SDS011;2101;48.290;14.382;2022-09-29T07:01:29;20.27;;;5.40;;
4174;SDS011;2101;48.290;14.382;2022-09-29T07:03:56;22.50;;;5.70;;
4174;SDS011;2101;48.290;14.382;2022-09-29T07:06:24;23.10;;;5.70;;
4174;SDS011;2101;48.290;14.382;2022-09-29T07:08:54;22.53;;;5.70;;
4174;SDS011;2101;48.290;14.382;2022-09-29T07:11:20;43.20;;;5.93;;
4174;SDS011;2101;48.290;14.382;2022-09-29T07:13:47;23.50;;;6.50;;
4174;SDS011;2101;48.290;14.382;2022-09-29T07:16:14;22.90;;;5.57;;
4174;SDS011;2101;48.290;14.382;2022-09-29T07:18:41;27.17;;;5.60;;
4174;SDS011;2101;48.290;14.382;2022-09-29T07:21:08;20.40;;;5.40;;
4174;SDS011;2101;48.290;14.382;2022-09-29T07:23:35;19.90;;;5.17;;
4174;SDS011;2101;48.290;14.382;2022-09-29T07:26:02;20.70;;;5.10;;
4174;SDS011;2101;48.290;14.382;2022-09-29T07:28:28;21.43;;;5.07;;
4174;SDS011;2101;48.290;14.382;2022-09-29T07:31:04;24.10;;;4.77;;
4174;SDS011;2101;48.290;14.382;2022-09-29T07:33:32;19.87;;;4.73;;
4174;SDS011;2101;48.290;14.382;2022-09-29T07:35:58;20.97;;;4.67;;
4174;SDS011;2101;48.290;14.382;2022-09-29T07:38:25;19.70;;;5.37;;
4174;SDS011;2101;48.290;14.382;2022-09-29T07:40:51;20.97;;;5.50;;
4174;SDS011;2101;48.290;14.382;2022-09-29T07:43:20;23.23;;;4.80;;
4174;SDS011;2101;48.290;14.382;2022-09-29T07:45:47;19.47;;;4.87;;
4174;SDS011;2101;48.290;14.382;2022-09-29T07:48:13;20.00;;;5.10;;
4174;SDS011;2101;48.290;14.382;2022-09-29T07:50:40;18.17;;;4.30;;
4174;SDS011;2101;48.290;14.382;2022-09-29T07:53:06;20.17;;;4.90;;
4174;SDS011;2101;48.290;14.382;2022-09-29T07:55:32;19.50;;;4.57;;
4174;SDS011;2101;48.290;14.382;2022-09-29T07:57:58;18.70;;;4.60;;
4174;SDS011;2101;48.290;14.382;2022-09-29T08:00:25;20.87;;;5.03;;
4174;SDS011;2101;48.290;14.382;2022-09-29T08:02:52;20.47;;;4.90;;
4174;SDS011;2101;48.290;14.382;2022-09-29T08:05:18;18.93;;;4.60;;
4174;SDS011;2101;48.290;14.382;2022-09-29T08:07:44;18.90;;;4.10;;
4174;SDS011;2101;48.290;14.382;2022-09-29T08:10:10;18.10;;;4.00;;
4174;SDS011;2101;48.290;14.382;2022-09-29T08:12:36;19.17;;;4.70;;
4174;SDS011;2101;48.290;14.382;2022-09-29T08:15:02;19.60;;;3.80;;
4174;SDS011;2101;48.290;14.382;2022-09-29T08:29:56;19.47;;;4.07;;
4174;SDS011;2101;48.290;14.382;2022-09-29T08:32:22;21.27;;;3.80;;
4174;SDS011;2101;48.290;14.382;2022-09-29T08:34:49;18.17;;;3.80;;
4174;SDS011;2101;48.290;14.382;2022-09-29T08:37:15;18.40;;;3.70;;
4174;SDS011;2101;48.290;14.382;2022-09-29T08:39:42;17.20;;;3.67;;
4174;SDS011;2101;48.290;14.382;2022-09-29T08:42:14;18.60;;;3.93;;
4174;SDS011;2101;48.290;14.382;2022-09-29T08:44:46;17.20;;;3.50;;
4174;SDS011;2101;48.290;14.382;2022-09-29T08:49:48;19.80;;;3.47;;
4174;SDS011;2101;48.290;14.382;2022-09-29T08:52:25;16.80;;;3.07;;
4174;SDS011;2101;48.290;14.382;2022-09-29T08:54:54;16.40;;;3.33;;
4174;SDS011;2101;48.290;14.382;2022-09-29T08:57:21;18.77;;;3.40;;
4174;SDS011;2101;48.290;14.382;2022-09-29T08:59:52;17.57;;;3.80;;
4174;SDS011;2101;48.290;14.382;2022-09-29T09:10:20;16.53;;;3.00;;
4174;SDS011;2101;48.290;14.382;2022-09-29T09:20:26;16.00;;;2.47;;
4174;SDS011;2101;48.290;14.382;2022-09-29T09:22:59;17.40;;;2.87;;
4174;SDS011;2101;48.290;14.382;2022-09-29T09:27:58;16.37;;;2.40;;
4174;SDS011;2101;48.290;14.382;2022-09-29T09:30:28;15.93;;;2.90;;
4174;SDS011;2101;48.290;14.382;2022-09-29T09:32:57;17.13;;;3.27;;
4174;SDS011;2101;48.290;14.382;2022-09-29T09:37:51;15.07;;;2.43;;
4174;SDS011;2101;48.290;14.382;2022-09-29T09:40:25;17.30;;;3.13;;
4174;SDS011;2101;48.290;14.382;2022-09-29T09:42:59;14.70;;;2.17;;
4174;SDS011;2101;48.290;14.382;2022-09-29T09:45:28;15.97;;;2.73;;
4174;SDS011;2101;48.290;14.382;2022-09-29T09:47:58;16.10;;;2.90;;
4174;SDS011;2101;48.290;14.382;2022-09-29T09:50:26;16.80;;;3.20;;
4174;SDS011;2101;48.290;14.382;2022-09-29T09:53:03;21.03;;;3.00;;
4174;SDS011;2101;48.290;14.382;2022-09-29T09:55:30;16.73;;;2.77;;
4174;SDS011;2101;48.290;14.382;2022-09-29T10:03:06;16.27;;;3.07;;
4174;SDS011;2101;48.290;14.382;2022-09-29T10:05:45;14.80;;;2.17;;
4174;SDS011;2101;48.290;14.382;2022-09-29T10:08:28;15.10;;;2.30;;
4174;SDS011;2101;48.290;14.382;2022-09-29T10:10:55;15.87;;;2.37;;
4174;SDS011;2101;48.290;14.382;2022-09-29T10:13:23;15.50;;;2.50;;
4174;SDS011;2101;48.290;14.382;2022-09-29T10:18:49;17.13;;;2.47;;
4174;SDS011;2101;48.290;14.382;2022-09-29T10:23:51;14.00;;;1.60;;
4174;SDS011;2101;48.290;14.382;2022-09-29T10:26:18;14.60;;;1.63;;
4174;SDS011;2101;48.290;14.382;2022-09-29T10:28:54;14.50;;;1.40;;
4174;SDS011;2101;48.290;14.382;2022-09-29T10:33:53;14.50;;;1.50;;
4174;SDS011;2101;48.290;14.382;2022-09-29T10:36:20;14.23;;;1.90;;
4174;SDS011;2101;48.290;14.382;2022-09-29T10:38:47;13.90;;;1.70;;
4174;SDS011;2101;48.290;14.382;2022-09-29T10:41:14;15.10;;;1.93;;
4174;SDS011;2101;48.290;14.382;2022-09-29T10:43:42;14.70;;;2.07;;
4174;SDS011;2101;48.290;14.382;2022-09-29T10:51:39;14.60;;;1.87;;
4174;SDS011;2101;48.290;14.382;2022-09-29T10:54:06;15.80;;;2.07;;
4174;SDS011;2101;48.290;14.382;2022-09-29T10:56:32;15.63;;;1.83;;
4174;SDS011;2101;48.290;14.382;2022-09-29T10:58:59;14.30;;;1.70;;
4174;SDS011;2101;48.290;14.382;2022-09-29T11:01:26;14.20;;;1.73;;
4174;SDS011;2101;48.290;14.382;2022-09-29T11:03:55;14.10;;;1.60;;
4174;SDS011;2101;48.290;14.382;2022-09-29T11:11:38;14.73;;;1.70;;
4174;SDS011;2101;48.290;14.382;2022-09-29T11:14:04;14.23;;;1.73;;
4174;SDS011;2101;48.290;14.382;2022-09-29T11:19:08;14.37;;;1.80;;
4174;SDS011;2101;48.290;14.382;2022-09-29T11:26:44;14.43;;;1.73;;
4174;SDS011;2101;48.290;14.382;2022-09-29T11:36:50;14.67;;;1.83;;
4174;SDS011;2101;48.290;14.382;2022-09-29T11:39:22;17.57;;;2.20;;
4174;SDS011;2101;48.290;14.382;2022-09-29T11:44:54;14.67;;;1.87;;
4174;SDS011;2101;48.290;14.382;2022-09-29T12:02:54;17.50;;;1.53;;
4174;SDS011;2101;48.290;14.382;2022-09-29T12:05:31;14.27;;;1.53;;
4174;SDS011;2101;48.290;14.382;2022-09-29T12:10:43;14.10;;;1.60;;
4174;SDS011;2101;48.290;14.382;2022-09-29T12:16:06;13.63;;;1.40;;
4174;SDS011;2101;48.290;14.382;2022-09-29T12:18:42;14.03;;;1.57;;
4174;SDS011;2101;48.290;14.382;2022-09-29T12:21:10;13.90;;;1.60;;
4174;SDS011;2101;48.290;14.382;2022-09-29T12:23:38;16.90;;;1.40;;
4174;SDS011;2101;48.290;14.382;2022-09-29T12:28:42;14.30;;;1.50;;
4174;SDS011;2101;48.290;14.382;2022-09-29T12:31:17;13.30;;;1.17;;
4174;SDS011;2101;48.290;14.382;2022-09-29T12:33:56;13.90;;;1.20;;
4174;SDS011;2101;48.290;14.382;2022-09-29T12:36:25;15.00;;;1.90;;
4174;SDS011;2101;48.290;14.382;2022-09-29T12:39:23;14.00;;;1.40;;
4174;SDS011;2101;48.290;14.382;2022-09-29T12:41:57;13.60;;;1.20;;
4174;SDS011;2101;48.290;14.382;2022-09-29T12:44:31;13.40;;;1.30;;
4174;SDS011;2101;48.290;14.382;2022-09-29T12:47:22;13.57;;;1.30;;
4174;SDS011;2101;48.290;14.382;2022-09-29T12:52:37;13.60;;;1.40;;
4174;SDS011;2101;48.290;14.382;2022-09-29T12:55:06;13.47;;;1.33;;
4174;SDS011;2101;48.290;14.382;2022-09-29T12:57:34;14.40;;;1.37;;
4174;SDS011;2101;48.290;14.382;2022-09-29T13:00:06;13.23;;;1.13;;
4174;SDS011;2101;48.290;14.382;2022-09-29T13:13:26;15.00;;;1.27;;
4174;SDS011;2101;48.290;14.382;2022-09-29T13:28:44;13.53;;;1.30;;
4174;SDS011;2101;48.290;14.382;2022-09-29T13:31:13;14.20;;;1.30;;
4174;SDS011;2101;48.290;14.382;2022-09-29T13:33:40;16.30;;;1.50;;
4174;SDS011;2101;48.290;14.382;2022-09-29T13:36:06;13.90;;;1.20;;
4174;SDS011;2101;48.290;14.382;2022-09-29T13:38:34;13.47;;;1.10;;
4174;SDS011;2101;48.290;14.382;2022-09-29T13:44:23;13.57;;;1.20;;
4174;SDS011;2101;48.290;14.382;2022-09-29T13:51:38;13.93;;;1.23;;
4174;SDS011;2101;48.290;14.382;2022-09-29T13:59:31;13.70;;;1.43;;
4174;SDS011;2101;48.290;14.382;2022-09-29T14:01:57;13.70;;;1.10;;
4174;SDS011;2101;48.290;14.382;2022-09-29T14:06:57;13.43;;;1.10;;
4174;SDS011;2101;48.290;14.382;2022-09-29T14:09:24;13.77;;;1.20;;
4174;SDS011;2101;48.290;14.382;2022-09-29T14:11:57;16.50;;;1.30;;
4174;SDS011;2101;48.290;14.382;2022-09-29T14:14:30;15.00;;;1.47;;
4174;SDS011;2101;48.290;14.382;2022-09-29T14:21:59;14.00;;;1.60;;
4174;SDS011;2101;48.290;14.382;2022-09-29T14:32:40;14.40;;;1.50;;
4174;SDS011;2101;48.290;14.382;2022-09-29T14:35:13;14.77;;;1.70;;
4174;SDS011;2101;48.290;14.382;2022-09-29T14:37:40;14.60;;;1.47;;
4174;SDS011;2101;48.290;14.382;2022-09-29T14:40:07;14.87;;;1.80;;
4174;SDS011;2101;48.290;14.382;2022-09-29T14:45:52;13.27;;;1.10;;
4174;SDS011;2101;48.290;14.382;2022-09-29T14:49:00;13.60;;;1.30;;
4174;SDS011;2101;48.290;14.382;2022-09-29T14:51:55;14.40;;;1.70;;
4174;SDS011;2101;48.290;14.382;2022-09-29T14:57:25;13.10;;;1.10;;
4174;SDS011;2101;48.290;14.382;2022-09-29T15:00:00;14.00;;;1.10;;
4174;SDS011;2101;48.290;14.382;2022-09-29T15:02:27;13.63;;;1.10;;
4174;SDS011;2101;48.290;14.382;2022-09-29T15:04:54;13.70;;;1.10;;
4174;SDS011;2101;48.290;14.382;2022-09-29T15:07:22;14.43;;;1.53;;
4174;SDS011;2101;48.290;14.382;2022-09-29T15:09:50;13.33;;;1.10;;
4174;SDS011;2101;48.290;14.382;2022-09-29T15:12:26;13.60;;;1.27;;
4174;SDS011;2101;48.290;14.382;2022-09-29T15:14:53;14.63;;;1.30;;
4174;SDS011;2101;48.290;14.382;2022-09-29T15:20:05;13.07;;;1.00;;
4174;SDS011;2101;48.290;14.382;2022-09-29T15:22:38;12.93;;;0.93;;
4174;SDS011;2101;48.290;14.382;2022-09-29T15:30:25;15.43;;;1.20;;
4174;SDS011;2101;48.290;14.382;2022-09-29T15:32:53;14.00;;;1.40;;
4174;SDS011;2101;48.290;14.382;2022-09-29T15:35:21;13.60;;;1.10;;
4174;SDS011;2101;48.290;14.382;2022-09-29T15:37:55;12.87;;;1.07;;
4174;SDS011;2101;48.290;14.382;2022-09-29T15:40:29;15.83;;;1.23;;
4174;SDS011;2101;48.290;14.382;2022-09-29T15:43:17;13.43;;;1.20;;
4174;SDS011;2101;48.290;14.382;2022-09-29T15:45:57;14.10;;;1.20;;
4174;SDS011;2101;48.290;14.382;2022-09-29T15:48:27;12.87;;;1.00;;
4174;SDS011;2101;48.290;14.382;2022-09-29T15:51:02;13.20;;;1.13;;
4174;SDS011;2101;48.290;14.382;2022-09-29T15:53:28;13.40;;;1.20;;
4174;SDS011;2101;48.290;14.382;2022-09-29T15:55:56;13.70;;;1.20;;
4174;SDS011;2101;48.290;14.382;2022-09-29T15:58:33;13.87;;;1.40;;
4174;SDS011;2101;48.290;14.382;2022-09-29T16:01:04;12.90;;;1.00;;
4174;SDS011;2101;48.290;14.382;2022-09-29T16:03:44;14.53;;;1.53;;
4174;SDS011;2101;48.290;14.382;2022-09-29T16:06:22;13.90;;;1.20;;
4174;SDS011;2101;48.290;14.382;2022-09-29T16:08:52;13.67;;;1.33;;
4174;SDS011;2101;48.290;14.382;2022-09-29T16:11:31;13.60;;;1.20;;
4174;SDS011;2101;48.290;14.382;2022-09-29T16:13:59;13.30;;;1.13;;
4174;SDS011;2101;48.290;14.382;2022-09-29T16:16:28;13.20;;;1.17;;
4174;SDS011;2101;48.290;14.382;2022-09-29T16:18:57;13.50;;;1.27;;
4174;SDS011;2101;48.290;14.382;2022-09-29T16:21:25;13.47;;;1.43;;
4174;SDS011;2101;48.290;14.382;2022-09-29T16:31:35;13.13;;;1.17;;
4174;SDS011;2101;48.290;14.382;2022-09-29T16:34:03;14.50;;;1.43;;
4174;SDS011;2101;48.290;14.382;2022-09-29T16:36:31;20.17;;;4.30;;
4174;SDS011;2101;48.290;14.382;2022-09-29T16:39:02;23.37;;;6.80;;
4174;SDS011;2101;48.290;14.382;2022-09-29T16:41:32;29.40;;;4.43;;
4174;SDS011;2101;48.290;14.382;2022-09-29T16:46:31;21.80;;;4.50;;
4174;SDS011;2101;48.290;14.382;2022-09-29T16:48:57;16.03;;;2.23;;
4174;SDS011;2101;48.290;14.382;2022-09-29T16:51:23;19.20;;;3.17;;
4174;SDS011;2101;48.290;14.382;2022-09-29T16:53:49;14.60;;;2.13;;
4174;SDS011;2101;48.290;14.382;2022-09-29T16:56:17;14.73;;;1.77;;
4174;SDS011;2101;48.290;14.382;2022-09-29T16:58:44;14.70;;;1.87;;
4174;SDS011;2101;48.290;14.382;2022-09-29T17:01:10;15.00;;;1.70;;
4174;SDS011;2101;48.290;14.382;2022-09-29T17:03:38;15.20;;;1.73;;
4174;SDS011;2101;48.290;14.382;2022-09-29T17:06:04;13.87;;;1.50;;
4174;SDS011;2101;48.290;14.382;2022-09-29T17:08:31;18.80;;;1.90;;
4174;SDS011;2101;48.290;14.382;2022-09-29T17:10:59;17.30;;;1.87;;
4174;SDS011;2101;48.290;14.382;2022-09-29T17:13:32;15.50;;;1.70;;
4174;SDS011;2101;48.290;14.382;2022-09-29T17:15:59;14.80;;;1.83;;
4174;SDS011;2101;48.290;14.382;2022-09-29T17:18:25;20.90;;;3.40;;
4174;SDS011;2101;48.290;14.382;2022-09-29T17:20:53;17.67;;;2.00;;
4174;SDS011;2101;48.290;14.382;2022-09-29T17:23:19;13.90;;;1.67;;
4174;SDS011;2101;48.290;14.382;2022-09-29T17:25:46;14.37;;;1.73;;
4174;SDS011;2101;48.290;14.382;2022-09-29T17:28:13;16.90;;;3.37;;
4174;SDS011;2101;48.290;14.382;2022-09-29T17:30:41;16.50;;;2.50;;
4174;SDS011;2101;48.290;14.382;2022-09-29T17:33:09;14.37;;;2.10;;
4174;SDS011;2101;48.290;14.382;2022-09-29T17:35:37;19.43;;;2.10;;
4174;SDS011;2101;48.290;14.382;2022-09-29T17:38:04;15.30;;;1.73;;
4174;SDS011;2101;48.290;14.382;2022-09-29T17:43:40;14.07;;;1.70;;
4174;SDS011;2101;48.290;14.382;2022-09-29T17:46:11;27.37;;;8.50;;
4174;SDS011;2101;48.290;14.382;2022-09-29T17:48:38;16.63;;;2.90;;
4174;SDS011;2101;48.290;14.382;2022-09-29T17:51:08;18.60;;;1.90;;
4174;SDS011;2101;48.290;14.382;2022-09-29T17:53:34;14.27;;;1.93;;
4174;SDS011;2101;48.290;14.382;2022-09-29T17:56:02;13.37;;;1.30;;
4174;SDS011;2101;48.290;14.382;2022-09-29T17:58:31;14.20;;;1.63;;
4174;SDS011;2101;48.290;14.382;2022-09-29T18:00:57;15.83;;;1.70;;
4174;SDS011;2101;48.290;14.382;2022-09-29T18:03:23;16.30;;;2.33;;
4174;SDS011;2101;48.290;14.382;2022-09-29T18:05:53;14.80;;;1.67;;
4174;SDS011;2101;48.290;14.382;2022-09-29T18:08:24;19.93;;;2.20;;
4174;SDS011;2101;48.290;14.382;2022-09-29T18:10:54;18.87;;;2.67;;
4174;SDS011;2101;48.290;14.382;2022-09-29T18:13:21;15.40;;;1.90;;
4174;SDS011;2101;48.290;14.382;2022-09-29T18:15:48;17.60;;;1.97;;
4174;SDS011;2101;48.290;14.382;2022-09-29T18:18:15;14.57;;;1.97;;
4174;SDS011;2101;48.290;14.382;2022-09-29T18:20:47;15.70;;;1.70;;
4174;SDS011;2101;48.290;14.382;2022-09-29T18:23:15;16.03;;;1.63;;
4174;SDS011;2101;48.290;14.382;2022-09-29T18:25:41;14.37;;;1.67;;
4174;SDS011;2101;48.290;14.382;2022-09-29T18:28:09;15.50;;;1.47;;
4174;SDS011;2101;48.290;14.382;2022-09-29T18:30:36;13.53;;;1.30;;
4174;SDS011;2101;48.290;14.382;2022-09-29T18:33:07;13.97;;;1.20;;